createdAt,value
2023-03-11T00:00:36.168Z,10.15
2023-03-11T00:03:05.188Z,11.25
2023-03-11T00:05:34.621Z,14.70
2023-03-11T00:08:02.938Z,11.77
2023-03-11T00:10:32.784Z,12.07
2023-03-11T00:13:00.544Z,12.45
2023-03-11T00:15:30.461Z,12.95
2023-03-11T00:17:58.308Z,16.45
2023-03-11T00:20:28.519Z,14.98
2023-03-11T00:22:56.837Z,12.30
2023-03-11T00:25:26.927Z,15.18
2023-03-11T00:27:54.633Z,11.65
2023-03-11T00:30:23.031Z,12.70
2023-03-11T00:32:52.983Z,8.95
2023-03-11T00:35:22.596Z,12.65
2023-03-11T00:37:50.381Z,11.20
2023-03-11T00:40:20.222Z,10.98
2023-03-11T00:42:48.174Z,11.95
2023-03-11T00:45:16.282Z,12.13
2023-03-11T00:47:43.812Z,11.77
2023-03-11T00:50:17.822Z,12.25
2023-03-11T00:52:45.788Z,11.88
2023-03-11T00:55:15.914Z,12.70
2023-03-11T00:57:43.618Z,12.63
2023-03-11T01:00:15.073Z,11.35
2023-03-11T01:02:42.682Z,10.20
2023-03-11T01:05:11.067Z,10.23
2023-03-11T01:07:39.897Z,11.05
2023-03-11T01:10:09.766Z,9.88
2023-03-11T01:12:37.438Z,8.07
2023-03-11T01:15:05.952Z,8.63
2023-03-11T01:17:33.424Z,10.15
2023-03-11T01:20:00.931Z,8.98
2023-03-11T01:22:28.446Z,10.00
2023-03-11T01:24:57.388Z,9.55
2023-03-11T01:27:25.482Z,11.35
2023-03-11T01:29:53.039Z,11.25
2023-03-11T01:32:20.603Z,8.73
2023-03-11T01:34:48.499Z,9.27
2023-03-11T01:37:15.997Z,11.43
2023-03-11T01:39:43.530Z,10.15
2023-03-11T01:42:12.334Z,12.23
2023-03-11T01:44:39.871Z,9.95
2023-03-11T01:47:37.169Z,13.45
2023-03-11T01:50:06.785Z,9.90
2023-03-11T01:52:34.614Z,13.75
2023-03-11T01:55:02.109Z,10.35
2023-03-11T01:57:31.212Z,11.55
2023-03-11T01:59:59.650Z,11.85
2023-03-11T02:02:30.131Z,15.00
2023-03-11T02:04:58.021Z,11.32
2023-03-11T02:07:25.498Z,13.77
2023-03-11T02:09:53.021Z,13.40
2023-03-11T02:12:20.622Z,13.48
2023-03-11T02:14:51.218Z,14.00
2023-03-11T02:17:19.304Z,14.52
2023-03-11T02:19:57.407Z,15.13
2023-03-11T02:22:25.430Z,16.42
2023-03-11T02:24:59.245Z,14.18
2023-03-11T02:27:28.810Z,10.65
2023-03-11T02:29:56.869Z,10.82
2023-03-11T02:32:24.689Z,17.17
2023-03-11T02:34:52.253Z,13.23
2023-03-11T02:37:19.972Z,15.20
2023-03-11T02:39:49.725Z,18.63
2023-03-11T02:42:19.554Z,14.63
2023-03-11T02:44:53.496Z,16.98
2023-03-11T02:47:21.002Z,15.88
2023-03-11T02:49:48.827Z,14.60
2023-03-11T02:52:16.661Z,13.13
2023-03-11T02:54:44.172Z,16.70
2023-03-11T02:57:11.644Z,13.55
2023-03-11T02:59:39.197Z,14.88
2023-03-11T03:02:07.968Z,16.02
2023-03-11T03:04:35.485Z,14.23
2023-03-11T03:07:03.556Z,16.38
2023-03-11T03:09:31.093Z,16.33
2023-03-11T03:11:58.714Z,11.38
2023-03-11T03:14:26.330Z,13.60
2023-03-11T03:16:54.245Z,17.73
2023-03-11T03:19:23.453Z,17.85
2023-03-11T03:21:50.926Z,13.95
2023-03-11T03:24:18.487Z,16.58
2023-03-11T03:26:45.962Z,15.68
2023-03-11T03:29:13.479Z,16.30
2023-03-11T03:31:41.056Z,17.65
2023-03-11T03:34:09.293Z,16.00
2023-03-11T03:36:38.112Z,13.35
2023-03-11T03:39:05.913Z,16.75
2023-03-11T03:41:33.415Z,17.02
2023-03-11T03:44:01.280Z,17.25
2023-03-11T03:46:28.938Z,14.25
2023-03-11T03:48:56.422Z,18.02
2023-03-11T03:51:23.951Z,17.42
2023-03-11T03:53:52.903Z,15.63
2023-03-11T03:56:20.424Z,17.13
2023-03-11T03:58:47.926Z,17.33
2023-03-11T04:01:15.394Z,17.88
2023-03-11T04:03:42.957Z,16.80
2023-03-11T04:06:12.334Z,16.60
2023-03-11T04:08:40.464Z,13.27
2023-03-11T04:11:09.713Z,14.73
2023-03-11T04:13:37.431Z,15.48
2023-03-11T04:16:05.611Z,14.00
2023-03-11T04:18:33.528Z,16.63
2023-03-11T04:21:01.455Z,17.45
2023-03-11T04:23:29.031Z,14.70
2023-03-11T04:25:56.775Z,14.38
2023-03-11T04:28:25.610Z,9.40
2023-03-11T04:30:53.375Z,8.80
2023-03-11T04:33:21.189Z,12.63
2023-03-11T04:35:49.051Z,12.65
2023-03-11T04:38:16.542Z,11.30
2023-03-11T04:40:44.038Z,12.77
2023-03-11T04:43:11.514Z,11.50
2023-03-11T04:45:41.248Z,9.57
2023-03-11T04:48:09.177Z,12.80
2023-03-11T04:50:36.912Z,11.57
2023-03-11T04:53:04.365Z,8.68
2023-03-11T04:55:33.278Z,12.00
2023-03-11T04:58:00.790Z,11.05
2023-03-11T05:00:28.529Z,11.80
2023-03-11T05:02:57.365Z,11.77
2023-03-11T05:05:25.039Z,10.77
2023-03-11T05:07:52.517Z,11.45
2023-03-11T05:10:22.482Z,9.70
2023-03-11T05:12:50.742Z,10.20
2023-03-11T05:15:18.665Z,9.45
2023-03-11T05:17:46.217Z,10.38
2023-03-11T05:20:15.949Z,8.25
2023-03-11T05:22:44.007Z,11.85
2023-03-11T05:25:11.607Z,9.38
2023-03-11T05:27:39.190Z,10.80
2023-03-11T05:30:08.088Z,10.50
2023-03-11T05:32:35.576Z,8.50
2023-03-11T05:35:04.442Z,12.02
2023-03-11T05:37:33.385Z,11.00
2023-03-11T05:40:00.875Z,11.57
2023-03-11T05:42:28.391Z,10.32
2023-03-11T05:44:55.869Z,12.32
2023-03-11T05:47:23.393Z,10.23
2023-03-11T05:49:51.673Z,9.90
2023-03-11T05:52:19.361Z,9.15
2023-03-11T05:54:50.400Z,7.25
2023-03-11T05:57:17.932Z,10.25
2023-03-11T05:59:45.682Z,8.32
2023-03-11T06:02:13.333Z,9.45
2023-03-11T06:04:41.072Z,10.90
2023-03-11T06:07:09.361Z,8.32
2023-03-11T06:09:37.097Z,8.63
2023-03-11T06:12:06.583Z,9.23
2023-03-11T06:14:34.077Z,9.15
2023-03-11T06:17:01.551Z,8.73
2023-03-11T06:19:29.683Z,8.70
2023-03-11T06:21:57.154Z,9.20
2023-03-11T06:24:24.684Z,8.27
2023-03-11T06:26:52.793Z,8.13
2023-03-11T06:29:24.370Z,6.05
2023-03-11T06:31:51.959Z,13.90
2023-03-11T06:34:19.559Z,8.07
2023-03-11T06:36:47.057Z,10.25
2023-03-11T06:39:15.615Z,9.07
2023-03-11T06:41:43.475Z,7.40
2023-03-11T06:44:11.361Z,11.07
2023-03-11T06:46:40.297Z,8.35
2023-03-11T06:49:07.866Z,8.50
2023-03-11T06:51:35.562Z,8.18
2023-03-11T06:54:03.041Z,8.48
2023-03-11T06:56:30.527Z,7.72
2023-03-11T06:58:58.001Z,7.78
2023-03-11T07:01:27.269Z,8.90
2023-03-11T07:03:56.154Z,8.38
2023-03-11T07:06:25.397Z,8.68
2023-03-11T07:08:53.797Z,7.70
2023-03-11T07:11:23.085Z,8.00
2023-03-11T07:13:51.029Z,6.65
2023-03-11T07:16:19.888Z,8.77
2023-03-11T07:18:49.302Z,9.73
2023-03-11T07:21:19.998Z,8.77
2023-03-11T07:23:49.218Z,8.75
2023-03-11T07:26:17.865Z,10.90
2023-03-11T07:28:45.725Z,12.10
2023-03-11T07:31:17.894Z,10.15
2023-03-11T07:33:48.123Z,10.57
2023-03-11T07:36:18.660Z,8.60
2023-03-11T07:38:46.912Z,9.70
2023-03-11T07:41:14.979Z,8.95
2023-03-11T07:43:43.803Z,8.45
2023-03-11T07:46:14.044Z,8.38
2023-03-11T07:48:41.893Z,9.25
2023-03-11T07:51:12.093Z,7.60
2023-03-11T07:53:41.440Z,6.53
2023-03-11T07:56:09.223Z,12.95
2023-03-11T07:58:37.083Z,19.02
2023-03-11T08:01:06.814Z,16.25
2023-03-11T08:03:34.625Z,21.67
2023-03-11T08:06:02.519Z,16.98
2023-03-11T08:08:29.995Z,12.95
2023-03-11T08:10:58.793Z,10.82
2023-03-11T08:13:26.318Z,9.93
2023-03-11T08:15:54.020Z,9.80
2023-03-11T08:18:21.493Z,10.32
2023-03-11T08:20:48.988Z,11.63
2023-03-11T08:23:16.590Z,11.18
2023-03-11T08:25:44.089Z,11.50
2023-03-11T08:28:12.913Z,13.40
2023-03-11T08:30:42.010Z,13.85
2023-03-11T08:33:09.697Z,13.05
2023-03-11T08:35:37.776Z,17.80
2023-03-11T08:38:05.504Z,10.45
2023-03-11T08:40:33.029Z,10.27
2023-03-11T08:43:00.517Z,12.35
2023-03-11T08:45:29.389Z,10.50
2023-03-11T08:47:56.945Z,10.85
2023-03-11T08:50:24.853Z,9.50
2023-03-11T08:52:52.492Z,11.52
2023-03-11T08:55:25.093Z,8.07
2023-03-11T08:57:52.609Z,8.57
2023-03-11T09:00:21.222Z,10.30
2023-03-11T09:02:50.457Z,9.93
2023-03-11T09:05:18.167Z,9.88
2023-03-11T09:07:45.863Z,9.07
2023-03-11T09:10:14.691Z,10.13
2023-03-11T09:12:42.292Z,8.57
2023-03-11T09:15:10.512Z,8.85
2023-03-11T09:17:38.223Z,7.43
2023-03-11T09:20:08.495Z,10.05
2023-03-11T09:22:36.017Z,10.75
2023-03-11T09:25:03.513Z,10.68
2023-03-11T09:27:31.015Z,9.80
2023-03-11T09:29:58.492Z,8.80
2023-03-11T09:32:26.656Z,9.60
2023-03-11T09:34:54.295Z,10.45
2023-03-11T09:37:23.128Z,9.93
2023-03-11T09:39:50.617Z,10.05
2023-03-11T09:42:21.271Z,9.93
2023-03-11T09:44:55.872Z,7.20
2023-03-11T09:47:38.027Z,10.18
2023-03-11T09:50:16.624Z,7.00
2023-03-11T09:52:48.610Z,10.20
2023-03-11T09:55:37.306Z,6.20
2023-03-11T09:58:10.656Z,9.88
2023-03-11T10:00:38.286Z,10.45
2023-03-11T10:03:08.440Z,9.98
2023-03-11T10:05:35.967Z,10.32
2023-03-11T10:08:11.661Z,9.73
2023-03-11T10:10:44.442Z,10.05
2023-03-11T10:13:16.314Z,10.27
2023-03-11T10:15:50.269Z,9.43
2023-03-11T10:18:38.098Z,10.05
2023-03-11T10:21:09.209Z,10.35
2023-03-11T10:23:49.623Z,11.27
2023-03-11T10:26:21.697Z,10.32
2023-03-11T10:28:52.122Z,10.82
2023-03-11T10:31:23.458Z,9.93
2023-03-11T10:33:54.036Z,9.70
2023-03-11T10:36:26.527Z,10.02
2023-03-11T10:38:56.394Z,10.70
2023-03-11T10:41:28.687Z,11.23
2023-03-11T10:44:02.829Z,11.05
2023-03-11T10:46:30.378Z,10.55
2023-03-11T10:48:58.247Z,11.40
2023-03-11T10:51:28.302Z,11.27
2023-03-11T10:53:59.083Z,9.07
2023-03-11T10:56:29.358Z,11.60
2023-03-11T10:58:57.513Z,10.13
2023-03-11T11:01:25.567Z,10.07
2023-03-11T11:03:55.874Z,8.57
2023-03-11T11:06:27.452Z,10.75
2023-03-11T11:09:15.788Z,9.73
2023-03-11T11:11:43.800Z,9.02
2023-03-11T11:14:11.394Z,8.95
2023-03-11T11:16:39.056Z,8.50
2023-03-11T11:19:10.264Z,8.43
2023-03-11T11:21:39.684Z,9.57
2023-03-11T11:24:16.848Z,8.45
2023-03-11T11:26:44.546Z,9.60
2023-03-11T11:29:15.783Z,12.13
2023-03-11T11:31:45.898Z,8.05
2023-03-11T11:34:29.096Z,8.25
2023-03-11T11:36:58.131Z,9.52
2023-03-11T11:39:27.650Z,9.90
2023-03-11T11:41:56.573Z,11.57
2023-03-11T11:44:31.013Z,9.25
2023-03-11T11:47:02.099Z,8.40
2023-03-11T11:49:31.482Z,7.00
2023-03-11T11:52:04.136Z,8.40
2023-03-11T11:54:36.259Z,5.95
2023-03-11T11:57:12.156Z,8.87
2023-03-11T11:59:39.733Z,9.40
2023-03-11T12:02:19.084Z,7.78
2023-03-11T12:04:50.300Z,7.45
2023-03-11T12:07:31.018Z,7.43
2023-03-11T12:10:21.329Z,8.10
2023-03-11T12:13:00.148Z,7.88
2023-03-11T12:15:30.100Z,8.00
2023-03-11T12:18:02.370Z,5.88
2023-03-11T12:20:33.399Z,7.17
2023-03-11T12:23:20.413Z,6.03
2023-03-11T12:26:03.319Z,7.22
2023-03-11T12:28:39.256Z,6.20
2023-03-11T12:31:09.760Z,6.20
2023-03-11T12:33:39.513Z,6.03
2023-03-11T12:36:10.243Z,5.07
2023-03-11T12:38:40.089Z,4.93
2023-03-11T12:41:09.722Z,4.97
2023-03-11T12:44:22.555Z,5.40
2023-03-11T12:47:32.437Z,5.63
2023-03-11T12:50:37.971Z,5.05
2023-03-11T12:53:05.490Z,5.53
2023-03-11T12:55:37.362Z,4.82
2023-03-11T12:58:46.812Z,8.00
2023-03-11T13:01:41.789Z,5.78
2023-03-11T13:04:22.172Z,5.60
2023-03-11T13:07:32.471Z,5.97
2023-03-11T13:10:18.772Z,5.40
2023-03-11T13:12:47.400Z,5.03
2023-03-11T13:15:35.268Z,6.32
2023-03-11T13:18:06.160Z,5.60
2023-03-11T13:20:49.716Z,5.95
2023-03-11T13:23:33.396Z,5.03
2023-03-11T13:26:31.242Z,6.55
2023-03-11T13:29:30.872Z,4.90
2023-03-11T13:32:12.176Z,5.30
2023-03-11T13:34:44.840Z,5.60
2023-03-11T13:37:20.364Z,4.18
2023-03-11T13:39:54.860Z,4.90
2023-03-11T13:42:28.431Z,4.65
2023-03-11T13:44:56.103Z,5.00
2023-03-11T13:47:26.263Z,5.18
2023-03-11T13:49:55.727Z,4.82
2023-03-11T13:52:27.897Z,4.68
2023-03-11T13:55:00.478Z,4.60
2023-03-11T13:57:29.988Z,5.15
2023-03-11T13:59:58.837Z,4.20
2023-03-11T14:02:28.435Z,4.15
2023-03-11T14:04:59.862Z,4.35
2023-03-11T14:07:29.918Z,4.40
2023-03-11T14:10:17.761Z,3.88
2023-03-11T14:12:45.507Z,3.97
2023-03-11T14:15:15.216Z,4.10
2023-03-11T14:17:44.221Z,4.03
2023-03-11T14:20:16.220Z,3.85
2023-03-11T14:22:48.256Z,3.83
2023-03-11T14:25:19.577Z,3.70
2023-03-11T14:27:54.057Z,4.18
2023-03-11T14:30:23.704Z,3.80
2023-03-11T14:33:01.938Z,3.60
2023-03-11T14:35:30.474Z,4.90
2023-03-11T14:37:58.327Z,4.03
2023-03-11T14:40:28.276Z,4.15
2023-03-11T14:42:57.412Z,4.32
2023-03-11T14:45:26.406Z,3.78
2023-03-11T14:47:57.668Z,4.78
2023-03-11T14:50:28.413Z,4.72
2023-03-11T14:52:58.819Z,4.82
2023-03-11T14:55:30.989Z,4.47
2023-03-11T14:58:01.258Z,4.03
2023-03-11T15:00:31.543Z,3.95
2023-03-11T15:03:04.487Z,3.15
2023-03-11T15:05:37.683Z,3.65
2023-03-11T15:08:07.305Z,3.80
2023-03-11T15:10:36.846Z,3.80
2023-03-11T15:13:10.006Z,3.80
2023-03-11T15:18:16.277Z,4.05
2023-03-11T15:20:45.055Z,4.10
2023-03-11T15:23:20.786Z,3.95
2023-03-11T15:25:50.279Z,5.18
2023-03-11T15:28:25.385Z,3.78
2023-03-11T15:31:17.850Z,3.60
2023-03-11T15:33:45.931Z,3.25
2023-03-11T15:36:30.484Z,4.10
2023-03-11T15:39:17.492Z,5.03
2023-03-11T15:41:46.418Z,3.70
2023-03-11T15:44:26.418Z,3.67
2023-03-11T15:46:55.335Z,3.85
2023-03-11T15:49:22.987Z,3.20
2023-03-11T15:51:50.476Z,3.58
2023-03-11T15:54:17.961Z,2.97
2023-03-11T15:56:45.925Z,3.30
2023-03-11T15:59:15.409Z,3.80
2023-03-11T16:01:43.257Z,3.85
2023-03-11T16:04:15.958Z,3.75
2023-03-11T16:06:44.100Z,3.30
2023-03-11T16:09:13.649Z,3.83
2023-03-11T16:11:42.044Z,3.38
2023-03-11T16:14:15.793Z,11.80
2023-03-11T16:16:43.471Z,5.60
2023-03-11T16:19:11.016Z,4.63
2023-03-11T16:21:42.746Z,3.60
2023-03-11T16:24:16.201Z,3.00
2023-03-11T16:26:43.690Z,5.97
2023-03-11T16:29:18.918Z,4.90
2023-03-11T16:31:49.151Z,4.32
2023-03-11T16:34:16.748Z,4.72
2023-03-11T16:36:45.546Z,3.63
2023-03-11T16:39:14.564Z,4.53
2023-03-11T16:41:44.016Z,4.45
2023-03-11T16:44:11.569Z,4.10
2023-03-11T16:46:39.187Z,3.80
2023-03-11T16:49:06.687Z,4.25
2023-03-11T16:51:34.507Z,3.95
2023-03-11T16:54:03.328Z,4.10
2023-03-11T16:56:30.845Z,3.63
2023-03-11T16:58:58.459Z,3.55
2023-03-11T17:01:26.179Z,2.85
2023-03-11T17:03:54.116Z,2.85
2023-03-11T17:06:22.270Z,3.25
2023-03-11T17:08:50.529Z,3.03
2023-03-11T17:11:20.784Z,3.00
2023-03-11T17:13:48.304Z,2.83
2023-03-11T17:16:15.799Z,2.90
2023-03-11T17:18:43.587Z,5.30
2023-03-11T17:21:12.685Z,6.13
2023-03-11T17:23:40.214Z,6.70
2023-03-11T17:26:09.463Z,7.32
2023-03-11T17:28:40.090Z,7.80
2023-03-11T17:31:12.038Z,11.68
2023-03-11T17:33:39.569Z,9.68
2023-03-11T17:36:08.942Z,10.70
2023-03-11T17:38:36.731Z,12.57
2023-03-11T17:41:08.263Z,8.05
2023-03-11T17:43:35.809Z,6.10
2023-03-11T17:46:07.591Z,5.43
2023-03-11T17:48:35.140Z,6.90
2023-03-11T17:51:06.339Z,7.40
2023-03-11T17:53:35.828Z,46.72
2023-03-11T17:56:03.934Z,8.23
2023-03-11T17:58:31.876Z,10.23
2023-03-11T18:00:59.762Z,6.90
2023-03-11T18:03:28.544Z,18.33
2023-03-11T18:05:56.451Z,12.27
2023-03-11T18:08:23.939Z,8.95
2023-03-11T18:10:51.566Z,27.05
2023-03-11T18:13:19.660Z,8.43
2023-03-11T18:15:47.572Z,7.97
2023-03-11T18:18:15.120Z,8.05
2023-03-11T18:20:43.872Z,10.25
2023-03-11T18:23:11.378Z,4.60
2023-03-11T18:25:38.860Z,5.97
2023-03-11T18:28:06.390Z,8.57
2023-03-11T18:30:37.023Z,7.65
2023-03-11T18:33:04.953Z,11.77
2023-03-11T18:35:32.458Z,8.85
2023-03-11T18:38:01.281Z,7.82
2023-03-11T18:40:28.767Z,7.30
2023-03-11T18:42:56.389Z,6.68
2023-03-11T18:45:23.851Z,5.57
2023-03-11T18:47:51.339Z,6.25
2023-03-11T18:50:20.050Z,5.65
2023-03-11T18:52:47.634Z,5.38
2023-03-11T18:55:16.778Z,3.88
2023-03-11T18:57:44.266Z,4.20
2023-03-11T19:00:13.321Z,3.70
2023-03-11T19:02:40.798Z,3.72
2023-03-11T19:05:08.959Z,3.47
2023-03-11T19:07:36.505Z,3.33
2023-03-11T19:10:04.309Z,3.20
2023-03-11T19:12:34.315Z,4.22
2023-03-11T19:15:01.905Z,3.72
2023-03-11T19:17:29.388Z,4.38
2023-03-11T19:19:56.850Z,3.90
2023-03-11T19:22:24.641Z,4.13
2023-03-11T19:24:54.527Z,3.70
2023-03-11T19:27:22.198Z,3.80
2023-03-11T19:29:51.378Z,11.40
2023-03-11T19:32:18.916Z,4.60
2023-03-11T19:34:46.646Z,4.68
2023-03-11T19:37:14.308Z,4.70
2023-03-11T19:39:41.984Z,4.97
2023-03-11T19:42:09.655Z,4.20
2023-03-11T19:44:37.437Z,4.45
2023-03-11T19:47:06.438Z,3.47
2023-03-11T19:49:34.045Z,4.18
2023-03-11T19:52:01.574Z,4.30
2023-03-11T19:54:29.058Z,4.72
2023-03-11T19:56:56.594Z,5.55
2023-03-11T19:59:24.215Z,5.20
2023-03-11T20:01:51.779Z,4.07
2023-03-11T20:04:21.836Z,3.95
2023-03-11T20:06:50.048Z,4.40
2023-03-11T20:09:17.739Z,4.45
2023-03-11T20:11:45.639Z,3.83
2023-03-11T20:14:13.459Z,4.40
2023-03-11T20:16:41.164Z,4.10
2023-03-11T20:19:08.972Z,3.60
2023-03-11T20:21:40.597Z,4.38
2023-03-11T20:24:09.153Z,6.18
2023-03-11T20:26:37.200Z,8.25
2023-03-11T20:29:04.772Z,6.18
2023-03-11T20:31:32.440Z,6.00
2023-03-11T20:34:00.535Z,5.90
2023-03-11T20:36:29.775Z,5.60
2023-03-11T20:38:58.668Z,6.00
2023-03-11T20:41:27.475Z,6.55
2023-03-11T20:43:56.149Z,10.68
2023-03-11T20:46:24.091Z,11.43
2023-03-11T20:48:51.698Z,6.93
2023-03-11T20:51:20.524Z,6.68
2023-03-11T20:53:48.827Z,5.50
2023-03-11T20:56:20.286Z,5.82
2023-03-11T20:58:48.787Z,5.43
2023-03-11T21:01:19.291Z,5.22
2023-03-11T21:03:47.347Z,5.22
2023-03-11T21:06:16.914Z,5.45
2023-03-11T21:08:44.626Z,4.45
2023-03-11T21:11:12.339Z,5.15
2023-03-11T21:13:41.173Z,4.95
2023-03-11T21:16:10.507Z,5.05
2023-03-11T21:18:38.270Z,5.70
2023-03-11T21:21:08.382Z,5.03
2023-03-11T21:23:36.112Z,4.97
2023-03-11T21:26:04.506Z,4.80
2023-03-11T21:28:34.326Z,4.80
2023-03-11T21:31:05.428Z,4.95
2023-03-11T21:33:33.414Z,4.60
2023-03-11T21:36:02.107Z,3.97
2023-03-11T21:38:30.424Z,3.65
2023-03-11T21:41:06.524Z,4.00
2023-03-11T21:43:34.555Z,4.32
2023-03-11T21:46:03.564Z,4.72
2023-03-11T21:48:31.376Z,5.35
2023-03-11T21:50:58.851Z,5.07
2023-03-11T21:53:26.940Z,4.85
2023-03-11T21:55:55.117Z,4.25
2023-03-11T21:58:22.954Z,4.22
2023-03-11T22:00:50.662Z,4.78
2023-03-11T22:03:19.943Z,4.75
2023-03-11T22:05:47.769Z,4.57
2023-03-11T22:08:15.687Z,3.65
2023-03-11T22:10:43.265Z,4.32
2023-03-11T22:13:10.870Z,4.28
2023-03-11T22:15:38.873Z,3.95
2023-03-11T22:18:06.641Z,3.88
2023-03-11T22:20:35.498Z,4.10
2023-03-11T22:23:03.409Z,4.30
2023-03-11T22:25:30.993Z,3.92
2023-03-11T22:27:58.657Z,3.80
2023-03-11T22:30:26.233Z,4.47
2023-03-11T22:32:54.176Z,4.18
2023-03-11T22:35:21.723Z,3.60
2023-03-11T22:37:50.505Z,3.90
2023-03-11T22:40:18.050Z,3.47
2023-03-11T22:42:45.568Z,3.85
2023-03-11T22:45:13.052Z,3.75
2023-03-11T22:47:41.593Z,4.00
2023-03-11T22:50:09.920Z,3.72
2023-03-11T22:52:37.449Z,3.85
2023-03-11T22:55:06.964Z,4.10
2023-03-11T22:57:38.710Z,4.03
2023-03-11T23:00:15.236Z,3.50
2023-03-11T23:02:42.753Z,3.95
2023-03-11T23:05:10.925Z,3.65
2023-03-11T23:07:38.404Z,3.60
2023-03-11T23:10:09.026Z,4.45
2023-03-11T23:12:37.821Z,3.63
2023-03-11T23:15:06.921Z,4.32
2023-03-11T23:17:34.587Z,3.63
2023-03-11T23:20:02.407Z,4.10
2023-03-11T23:22:29.902Z,3.95
2023-03-11T23:24:57.393Z,4.40
2023-03-11T23:27:26.242Z,4.10
2023-03-11T23:29:53.846Z,3.55
2023-03-11T23:32:21.475Z,3.60
2023-03-11T23:34:49.153Z,4.03
2023-03-11T23:37:16.709Z,4.28
2023-03-11T23:39:44.169Z,4.03
2023-03-11T23:42:24.957Z,4.53
2023-03-11T23:44:55.168Z,4.28
2023-03-11T23:47:22.682Z,3.85
2023-03-11T23:49:50.146Z,4.85
2023-03-11T23:52:17.777Z,4.38
2023-03-11T23:54:45.251Z,4.45
2023-03-11T23:57:12.781Z,4.70
2023-03-11T23:59:40.254Z,4.50
